sensor_id;sensor_type;location;lat;lon;timestamp;temperature;humidity
23637;DHT22;11995;50.842;4.456;2023-05-14T00:00:53;13.30;99.90
23637;DHT22;11995;50.842;4.456;2023-05-14T00:03:21;13.30;99.90
23637;DHT22;11995;50.842;4.456;2023-05-14T00:05:48;13.40;99.90
23637;DHT22;11995;50.842;4.456;2023-05-14T00:08:16;13.70;99.90
23637;DHT22;11995;50.842;4.456;2023-05-14T00:10:43;13.90;99.90
23637;DHT22;11995;50.842;4.456;2023-05-14T00:13:11;13.80;99.90
23637;DHT22;11995;50.842;4.456;2023-05-14T00:15:38;13.80;99.90
23637;DHT22;11995;50.842;4.456;2023-05-14T00:18:06;13.70;99.90
23637;DHT22;11995;50.842;4.456;2023-05-14T00:20:35;13.70;99.90
23637;DHT22;11995;50.842;4.456;2023-05-14T00:23:02;13.70;99.90
23637;DHT22;11995;50.842;4.456;2023-05-14T00:25:30;13.80;99.90
23637;DHT22;11995;50.842;4.456;2023-05-14T00:27:58;13.80;99.90
23637;DHT22;11995;50.842;4.456;2023-05-14T00:30:25;13.90;99.90
23637;DHT22;11995;50.842;4.456;2023-05-14T00:32:53;13.90;99.90
23637;DHT22;11995;50.842;4.456;2023-05-14T00:35:39;13.90;99.90
23637;DHT22;11995;50.842;4.456;2023-05-14T00:38:07;13.90;99.90
23637;DHT22;11995;50.842;4.456;2023-05-14T00:40:35;13.70;99.90
23637;DHT22;11995;50.842;4.456;2023-05-14T00:43:02;13.70;99.90
23637;DHT22;11995;50.842;4.456;2023-05-14T00:45:30;13.70;99.90
23637;DHT22;11995;50.842;4.456;2023-05-14T00:47:57;13.60;99.90
23637;DHT22;11995;50.842;4.456;2023-05-14T00:50:25;13.60;99.90
23637;DHT22;11995;50.842;4.456;2023-05-14T00:52:53;13.50;99.90
23637;DHT22;11995;50.842;4.456;2023-05-14T00:55:21;13.50;99.90
23637;DHT22;11995;50.842;4.456;2023-05-14T00:57:49;13.40;99.90
23637;DHT22;11995;50.842;4.456;2023-05-14T01:00:17;13.40;99.90
23637;DHT22;11995;50.842;4.456;2023-05-14T01:02:45;13.40;99.90
23637;DHT22;11995;50.842;4.456;2023-05-14T01:05:12;13.60;99.90
23637;DHT22;11995;50.842;4.456;2023-05-14T01:07:56;13.50;99.90
23637;DHT22;11995;50.842;4.456;2023-05-14T01:10:26;13.30;99.90
23637;DHT22;11995;50.842;4.456;2023-05-14T01:13:07;13.30;99.90
23637;DHT22;11995;50.842;4.456;2023-05-14T01:15:34;13.40;99.90
23637;DHT22;11995;50.842;4.456;2023-05-14T01:18:09;13.30;99.90
23637;DHT22;11995;50.842;4.456;2023-05-14T01:20:35;13.40;99.90
23637;DHT22;11995;50.842;4.456;2023-05-14T01:23:03;13.40;99.90
23637;DHT22;11995;50.842;4.456;2023-05-14T01:25:31;13.40;99.90
23637;DHT22;11995;50.842;4.456;2023-05-14T01:28:19;13.50;99.90
23637;DHT22;11995;50.842;4.456;2023-05-14T01:31:14;13.60;99.90
23637;DHT22;11995;50.842;4.456;2023-05-14T01:33:41;13.60;99.90
23637;DHT22;11995;50.842;4.456;2023-05-14T01:36:10;13.60;99.90
23637;DHT22;11995;50.842;4.456;2023-05-14T01:38:38;13.60;99.90
23637;DHT22;11995;50.842;4.456;2023-05-14T01:41:07;13.50;99.90
23637;DHT22;11995;50.842;4.456;2023-05-14T01:43:35;13.50;99.90
23637;DHT22;11995;50.842;4.456;2023-05-14T01:46:03;13.50;99.90
23637;DHT22;11995;50.842;4.456;2023-05-14T01:48:31;13.60;99.90
23637;DHT22;11995;50.842;4.456;2023-05-14T01:50:58;13.50;99.90
23637;DHT22;11995;50.842;4.456;2023-05-14T01:53:26;13.60;99.90
23637;DHT22;11995;50.842;4.456;2023-05-14T01:55:53;13.60;99.90
23637;DHT22;11995;50.842;4.456;2023-05-14T01:58:21;13.50;99.90
23637;DHT22;11995;50.842;4.456;2023-05-14T02:00:48;13.30;99.90
23637;DHT22;11995;50.842;4.456;2023-05-14T02:03:16;13.30;99.90
23637;DHT22;11995;50.842;4.456;2023-05-14T02:05:45;13.30;99.90
23637;DHT22;11995;50.842;4.456;2023-05-14T02:08:12;13.30;99.90
23637;DHT22;11995;50.842;4.456;2023-05-14T02:10:39;13.40;99.90
23637;DHT22;11995;50.842;4.456;2023-05-14T02:13:07;13.40;99.90
23637;DHT22;11995;50.842;4.456;2023-05-14T02:15:35;13.40;99.90
23637;DHT22;11995;50.842;4.456;2023-05-14T02:18:02;13.10;99.90
23637;DHT22;11995;50.842;4.456;2023-05-14T02:20:30;13.10;99.90
23637;DHT22;11995;50.842;4.456;2023-05-14T02:22:57;13.10;99.90
23637;DHT22;11995;50.842;4.456;2023-05-14T02:25:25;13.10;99.90
23637;DHT22;11995;50.842;4.456;2023-05-14T02:27:52;13.10;99.90
23637;DHT22;11995;50.842;4.456;2023-05-14T02:30:20;13.00;99.90
23637;DHT22;11995;50.842;4.456;2023-05-14T02:32:48;13.10;99.90
23637;DHT22;11995;50.842;4.456;2023-05-14T02:35:16;13.00;99.90
23637;DHT22;11995;50.842;4.456;2023-05-14T02:37:43;12.90;99.90
23637;DHT22;11995;50.842;4.456;2023-05-14T02:40:11;13.00;99.90
23637;DHT22;11995;50.842;4.456;2023-05-14T02:42:38;13.00;99.90
23637;DHT22;11995;50.842;4.456;2023-05-14T02:45:06;13.00;99.90
23637;DHT22;11995;50.842;4.456;2023-05-14T02:47:34;13.10;99.90
23637;DHT22;11995;50.842;4.456;2023-05-14T02:50:01;13.20;99.90
23637;DHT22;11995;50.842;4.456;2023-05-14T02:52:30;13.40;99.90
23637;DHT22;11995;50.842;4.456;2023-05-14T02:54:57;13.30;99.90
23637;DHT22;11995;50.842;4.456;2023-05-14T02:57:25;13.40;99.90
23637;DHT22;11995;50.842;4.456;2023-05-14T02:59:53;13.30;99.90
23637;DHT22;11995;50.842;4.456;2023-05-14T03:02:20;13.30;99.90
23637;DHT22;11995;50.842;4.456;2023-05-14T03:04:48;13.30;99.90
23637;DHT22;11995;50.842;4.456;2023-05-14T03:07:16;13.30;99.90
23637;DHT22;11995;50.842;4.456;2023-05-14T03:09:43;13.40;99.90
23637;DHT22;11995;50.842;4.456;2023-05-14T03:12:10;13.50;99.90
23637;DHT22;11995;50.842;4.456;2023-05-14T03:14:39;13.50;99.90
23637;DHT22;11995;50.842;4.456;2023-05-14T03:17:07;13.50;99.90
23637;DHT22;11995;50.842;4.456;2023-05-14T03:19:35;13.50;99.90
23637;DHT22;11995;50.842;4.456;2023-05-14T03:22:03;13.50;99.90
23637;DHT22;11995;50.842;4.456;2023-05-14T03:24:31;13.50;99.90
23637;DHT22;11995;50.842;4.456;2023-05-14T03:26:58;13.30;99.90
23637;DHT22;11995;50.842;4.456;2023-05-14T03:29:26;13.20;99.90
23637;DHT22;11995;50.842;4.456;2023-05-14T03:31:53;13.20;99.90
23637;DHT22;11995;50.842;4.456;2023-05-14T03:34:21;13.30;99.90
23637;DHT22;11995;50.842;4.456;2023-05-14T03:36:49;13.30;99.90
23637;DHT22;11995;50.842;4.456;2023-05-14T03:39:17;13.40;99.90
23637;DHT22;11995;50.842;4.456;2023-05-14T03:41:47;13.40;99.90
23637;DHT22;11995;50.842;4.456;2023-05-14T03:44:14;13.20;99.90
23637;DHT22;11995;50.842;4.456;2023-05-14T03:46:42;13.20;99.90
23637;DHT22;11995;50.842;4.456;2023-05-14T03:49:09;13.30;99.90
23637;DHT22;11995;50.842;4.456;2023-05-14T03:51:37;13.40;99.90
23637;DHT22;11995;50.842;4.456;2023-05-14T03:54:06;13.40;99.90
23637;DHT22;11995;50.842;4.456;2023-05-14T03:56:33;13.40;99.90
23637;DHT22;11995;50.842;4.456;2023-05-14T03:59:01;13.10;99.90
23637;DHT22;11995;50.842;4.456;2023-05-14T04:01:28;13.10;99.90
23637;DHT22;11995;50.842;4.456;2023-05-14T04:03:56;13.20;99.90
23637;DHT22;11995;50.842;4.456;2023-05-14T04:06:24;13.20;99.90
23637;DHT22;11995;50.842;4.456;2023-05-14T04:08:51;13.30;99.90
23637;DHT22;11995;50.842;4.456;2023-05-14T04:11:19;13.40;99.90
23637;DHT22;11995;50.842;4.456;2023-05-14T04:13:47;13.40;99.90
23637;DHT22;11995;50.842;4.456;2023-05-14T04:16:14;13.40;99.90
23637;DHT22;11995;50.842;4.456;2023-05-14T04:18:42;13.30;99.90
23637;DHT22;11995;50.842;4.456;2023-05-14T04:21:09;13.30;99.90
23637;DHT22;11995;50.842;4.456;2023-05-14T04:23:37;13.10;99.90
23637;DHT22;11995;50.842;4.456;2023-05-14T04:26:05;13.20;99.90
23637;DHT22;11995;50.842;4.456;2023-05-14T04:28:32;13.20;99.90
23637;DHT22;11995;50.842;4.456;2023-05-14T04:31:00;13.30;99.90
23637;DHT22;11995;50.842;4.456;2023-05-14T04:33:27;13.20;99.90
23637;DHT22;11995;50.842;4.456;2023-05-14T04:35:55;13.10;99.90
23637;DHT22;11995;50.842;4.456;2023-05-14T04:38:22;13.20;99.90
23637;DHT22;11995;50.842;4.456;2023-05-14T04:40:50;13.20;99.90
23637;DHT22;11995;50.842;4.456;2023-05-14T04:43:17;13.10;99.90
23637;DHT22;11995;50.842;4.456;2023-05-14T04:45:45;13.10;99.90
23637;DHT22;11995;50.842;4.456;2023-05-14T04:48:12;13.10;99.90
23637;DHT22;11995;50.842;4.456;2023-05-14T04:50:40;13.20;99.90
23637;DHT22;11995;50.842;4.456;2023-05-14T04:53:07;13.40;99.90
23637;DHT22;11995;50.842;4.456;2023-05-14T04:55:35;13.40;99.90
23637;DHT22;11995;50.842;4.456;2023-05-14T04:58:03;13.40;99.90
23637;DHT22;11995;50.842;4.456;2023-05-14T05:00:30;13.40;99.90
23637;DHT22;11995;50.842;4.456;2023-05-14T05:02:59;13.30;99.90
23637;DHT22;11995;50.842;4.456;2023-05-14T05:05:26;13.30;99.90
23637;DHT22;11995;50.842;4.456;2023-05-14T05:07:54;13.40;99.90
23637;DHT22;11995;50.842;4.456;2023-05-14T05:10:21;13.50;99.90
23637;DHT22;11995;50.842;4.456;2023-05-14T05:12:49;13.40;99.90
23637;DHT22;11995;50.842;4.456;2023-05-14T05:15:17;13.40;99.90
23637;DHT22;11995;50.842;4.456;2023-05-14T05:17:44;13.30;99.90
23637;DHT22;11995;50.842;4.456;2023-05-14T05:20:12;13.30;99.90
23637;DHT22;11995;50.842;4.456;2023-05-14T05:22:40;13.30;99.90
23637;DHT22;11995;50.842;4.456;2023-05-14T05:25:09;13.20;99.90
23637;DHT22;11995;50.842;4.456;2023-05-14T05:27:38;13.30;99.90
23637;DHT22;11995;50.842;4.456;2023-05-14T05:30:10;13.30;99.90
23637;DHT22;11995;50.842;4.456;2023-05-14T05:32:38;13.40;99.90
23637;DHT22;11995;50.842;4.456;2023-05-14T05:35:06;13.50;99.90
23637;DHT22;11995;50.842;4.456;2023-05-14T05:37:33;13.30;99.90
23637;DHT22;11995;50.842;4.456;2023-05-14T05:40:01;13.30;99.90
23637;DHT22;11995;50.842;4.456;2023-05-14T05:42:29;13.30;99.90
23637;DHT22;11995;50.842;4.456;2023-05-14T05:44:57;13.40;99.90
23637;DHT22;11995;50.842;4.456;2023-05-14T05:47:27;13.30;99.90
23637;DHT22;11995;50.842;4.456;2023-05-14T05:49:55;13.30;99.90
23637;DHT22;11995;50.842;4.456;2023-05-14T05:52:23;13.30;99.90
23637;DHT22;11995;50.842;4.456;2023-05-14T05:54:50;13.40;99.90
23637;DHT22;11995;50.842;4.456;2023-05-14T05:57:18;13.50;99.90
23637;DHT22;11995;50.842;4.456;2023-05-14T05:59:47;13.60;99.90
23637;DHT22;11995;50.842;4.456;2023-05-14T06:02:14;13.70;99.90
23637;DHT22;11995;50.842;4.456;2023-05-14T06:04:42;13.70;99.90
23637;DHT22;11995;50.842;4.456;2023-05-14T06:07:09;13.70;99.90
23637;DHT22;11995;50.842;4.456;2023-05-14T06:09:42;13.50;99.90
23637;DHT22;11995;50.842;4.456;2023-05-14T06:12:10;13.60;99.90
23637;DHT22;11995;50.842;4.456;2023-05-14T06:14:37;13.70;99.90
23637;DHT22;11995;50.842;4.456;2023-05-14T06:17:05;13.70;99.90
23637;DHT22;11995;50.842;4.456;2023-05-14T06:19:33;13.50;99.90
23637;DHT22;11995;50.842;4.456;2023-05-14T06:22:00;13.40;99.90
23637;DHT22;11995;50.842;4.456;2023-05-14T06:24:28;13.30;99.90
23637;DHT22;11995;50.842;4.456;2023-05-14T06:26:55;13.30;99.90
23637;DHT22;11995;50.842;4.456;2023-05-14T06:29:24;13.40;99.90
23637;DHT22;11995;50.842;4.456;2023-05-14T06:31:51;13.50;99.90
23637;DHT22;11995;50.842;4.456;2023-05-14T06:34:20;13.70;99.90
23637;DHT22;11995;50.842;4.456;2023-05-14T06:36:48;13.80;99.90
23637;DHT22;11995;50.842;4.456;2023-05-14T06:39:16;13.70;99.90
23637;DHT22;11995;50.842;4.456;2023-05-14T06:41:43;13.70;99.90
23637;DHT22;11995;50.842;4.456;2023-05-14T06:44:11;13.70;99.90
23637;DHT22;11995;50.842;4.456;2023-05-14T06:46:38;13.70;99.90
23637;DHT22;11995;50.842;4.456;2023-05-14T06:49:06;13.90;99.90
23637;DHT22;11995;50.842;4.456;2023-05-14T06:51:34;13.80;99.90
23637;DHT22;11995;50.842;4.456;2023-05-14T06:54:01;13.70;99.90
23637;DHT22;11995;50.842;4.456;2023-05-14T06:56:29;13.60;99.90
23637;DHT22;11995;50.842;4.456;2023-05-14T06:58:56;13.50;99.90
23637;DHT22;11995;50.842;4.456;2023-05-14T07:01:24;13.50;99.90
23637;DHT22;11995;50.842;4.456;2023-05-14T07:03:51;13.50;99.90
23637;DHT22;11995;50.842;4.456;2023-05-14T07:06:19;13.50;99.90
23637;DHT22;11995;50.842;4.456;2023-05-14T07:08:47;13.40;99.90
23637;DHT22;11995;50.842;4.456;2023-05-14T07:11:15;13.50;99.90
23637;DHT22;11995;50.842;4.456;2023-05-14T07:13:42;13.40;99.90
23637;DHT22;11995;50.842;4.456;2023-05-14T07:16:10;13.60;99.90
23637;DHT22;11995;50.842;4.456;2023-05-14T07:18:37;13.60;99.90
23637;DHT22;11995;50.842;4.456;2023-05-14T07:21:05;13.70;99.90
23637;DHT22;11995;50.842;4.456;2023-05-14T07:23:33;13.80;99.90
23637;DHT22;11995;50.842;4.456;2023-05-14T07:26:07;13.80;99.90
23637;DHT22;11995;50.842;4.456;2023-05-14T07:28:32;13.90;99.90
23637;DHT22;11995;50.842;4.456;2023-05-14T07:31:00;13.90;99.90
23637;DHT22;11995;50.842;4.456;2023-05-14T07:33:29;14.00;99.90
23637;DHT22;11995;50.842;4.456;2023-05-14T07:35:58;14.20;99.90
23637;DHT22;11995;50.842;4.456;2023-05-14T07:38:26;14.30;99.90
23637;DHT22;11995;50.842;4.456;2023-05-14T07:40:53;14.10;99.90
23637;DHT22;11995;50.842;4.456;2023-05-14T07:43:21;13.90;99.90
23637;DHT22;11995;50.842;4.456;2023-05-14T07:45:49;13.90;99.90
23637;DHT22;11995;50.842;4.456;2023-05-14T07:48:16;14.00;99.90
23637;DHT22;11995;50.842;4.456;2023-05-14T07:50:44;14.20;99.90
23637;DHT22;11995;50.842;4.456;2023-05-14T07:53:11;14.40;99.90
23637;DHT22;11995;50.842;4.456;2023-05-14T07:55:39;14.50;99.90
23637;DHT22;11995;50.842;4.456;2023-05-14T07:58:07;14.60;99.90
23637;DHT22;11995;50.842;4.456;2023-05-14T08:00:35;14.50;99.90
23637;DHT22;11995;50.842;4.456;2023-05-14T08:03:02;14.50;99.90
23637;DHT22;11995;50.842;4.456;2023-05-14T08:05:30;14.50;99.90
23637;DHT22;11995;50.842;4.456;2023-05-14T08:07:58;14.40;99.90
23637;DHT22;11995;50.842;4.456;2023-05-14T08:10:26;14.10;99.90
23637;DHT22;11995;50.842;4.456;2023-05-14T08:12:53;14.20;99.90
23637;DHT22;11995;50.842;4.456;2023-05-14T08:15:21;14.40;99.90
23637;DHT22;11995;50.842;4.456;2023-05-14T08:17:48;14.60;99.90
23637;DHT22;11995;50.842;4.456;2023-05-14T08:20:16;14.50;99.90
23637;DHT22;11995;50.842;4.456;2023-05-14T08:22:44;14.30;99.90
23637;DHT22;11995;50.842;4.456;2023-05-14T08:25:11;14.20;99.90
23637;DHT22;11995;50.842;4.456;2023-05-14T08:27:39;14.00;99.90
23637;DHT22;11995;50.842;4.456;2023-05-14T08:30:07;13.90;99.90
23637;DHT22;11995;50.842;4.456;2023-05-14T08:32:34;14.00;99.90
23637;DHT22;11995;50.842;4.456;2023-05-14T08:35:04;14.10;99.90
23637;DHT22;11995;50.842;4.456;2023-05-14T08:37:32;14.10;99.90
23637;DHT22;11995;50.842;4.456;2023-05-14T08:39:59;14.10;99.90
23637;DHT22;11995;50.842;4.456;2023-05-14T08:42:28;14.20;99.90
23637;DHT22;11995;50.842;4.456;2023-05-14T08:44:59;14.40;99.90
23637;DHT22;11995;50.842;4.456;2023-05-14T08:47:28;14.60;99.90
23637;DHT22;11995;50.842;4.456;2023-05-14T08:50:04;14.70;99.90
23637;DHT22;11995;50.842;4.456;2023-05-14T08:52:34;14.60;99.90
23637;DHT22;11995;50.842;4.456;2023-05-14T08:55:05;14.70;99.90
23637;DHT22;11995;50.842;4.456;2023-05-14T08:57:33;14.60;99.90
23637;DHT22;11995;50.842;4.456;2023-05-14T09:00:02;14.70;99.90
23637;DHT22;11995;50.842;4.456;2023-05-14T09:02:35;14.80;99.90
23637;DHT22;11995;50.842;4.456;2023-05-14T09:05:03;15.20;99.90
23637;DHT22;11995;50.842;4.456;2023-05-14T09:07:30;15.50;99.90
23637;DHT22;11995;50.842;4.456;2023-05-14T09:09:58;15.80;99.90
23637;DHT22;11995;50.842;4.456;2023-05-14T09:12:26;16.00;99.90
23637;DHT22;11995;50.842;4.456;2023-05-14T09:14:53;15.80;99.90
23637;DHT22;11995;50.842;4.456;2023-05-14T09:17:21;15.80;99.90
23637;DHT22;11995;50.842;4.456;2023-05-14T09:19:51;15.70;99.90
23637;DHT22;11995;50.842;4.456;2023-05-14T09:22:20;15.80;99.90
23637;DHT22;11995;50.842;4.456;2023-05-14T09:25:11;15.40;99.90
23637;DHT22;11995;50.842;4.456;2023-05-14T09:27:19;15.40;99.90
23637;DHT22;11995;50.842;4.456;2023-05-14T09:29:47;15.40;99.90
23637;DHT22;11995;50.842;4.456;2023-05-14T09:32:15;15.70;99.90
23637;DHT22;11995;50.842;4.456;2023-05-14T09:34:42;15.70;99.90
23637;DHT22;11995;50.842;4.456;2023-05-14T09:37:10;15.70;99.90
23637;DHT22;11995;50.842;4.456;2023-05-14T09:39:37;15.70;99.90
23637;DHT22;11995;50.842;4.456;2023-05-14T09:42:05;15.80;99.90
23637;DHT22;11995;50.842;4.456;2023-05-14T09:44:33;16.00;99.90
23637;DHT22;11995;50.842;4.456;2023-05-14T09:47:02;16.00;99.90
23637;DHT22;11995;50.842;4.456;2023-05-14T09:49:30;15.80;99.90
23637;DHT22;11995;50.842;4.456;2023-05-14T09:51:57;16.10;99.90
23637;DHT22;11995;50.842;4.456;2023-05-14T09:54:25;16.30;99.90
23637;DHT22;11995;50.842;4.456;2023-05-14T09:56:53;16.20;99.90
23637;DHT22;11995;50.842;4.456;2023-05-14T09:59:20;16.30;99.90
23637;DHT22;11995;50.842;4.456;2023-05-14T10:01:49;16.40;99.90
23637;DHT22;11995;50.842;4.456;2023-05-14T10:04:18;16.60;99.90
23637;DHT22;11995;50.842;4.456;2023-05-14T10:06:47;16.50;99.90
23637;DHT22;11995;50.842;4.456;2023-05-14T10:09:17;16.40;99.90
23637;DHT22;11995;50.842;4.456;2023-05-14T10:11:50;16.10;99.90
23637;DHT22;11995;50.842;4.456;2023-05-14T10:14:41;16.20;99.90
23637;DHT22;11995;50.842;4.456;2023-05-14T10:17:10;16.30;99.90
23637;DHT22;11995;50.842;4.456;2023-05-14T10:19:40;16.50;99.90
23637;DHT22;11995;50.842;4.456;2023-05-14T10:22:10;16.80;99.90
23637;DHT22;11995;50.842;4.456;2023-05-14T10:24:39;17.10;99.90
23637;DHT22;11995;50.842;4.456;2023-05-14T10:27:07;17.00;99.90
23637;DHT22;11995;50.842;4.456;2023-05-14T10:29:36;16.80;99.90
23637;DHT22;11995;50.842;4.456;2023-05-14T10:32:04;16.90;99.90
23637;DHT22;11995;50.842;4.456;2023-05-14T10:34:37;17.10;99.90
23637;DHT22;11995;50.842;4.456;2023-05-14T10:37:26;17.20;99.90
23637;DHT22;11995;50.842;4.456;2023-05-14T10:39:59;17.10;99.90
23637;DHT22;11995;50.842;4.456;2023-05-14T10:42:34;17.30;99.90
23637;DHT22;11995;50.842;4.456;2023-05-14T10:45:03;17.30;99.90
23637;DHT22;11995;50.842;4.456;2023-05-14T10:47:38;17.10;99.90
23637;DHT22;11995;50.842;4.456;2023-05-14T10:50:07;17.20;99.90
23637;DHT22;11995;50.842;4.456;2023-05-14T10:52:35;17.50;99.90
23637;DHT22;11995;50.842;4.456;2023-05-14T10:55:07;17.40;99.90
23637;DHT22;11995;50.842;4.456;2023-05-14T10:57:38;17.40;99.90
23637;DHT22;11995;50.842;4.456;2023-05-14T11:00:07;17.50;99.90
23637;DHT22;11995;50.842;4.456;2023-05-14T11:02:38;17.40;99.90
23637;DHT22;11995;50.842;4.456;2023-05-14T11:05:11;17.40;99.90
23637;DHT22;11995;50.842;4.456;2023-05-14T11:07:46;17.30;99.90
23637;DHT22;11995;50.842;4.456;2023-05-14T11:10:18;17.20;99.90
23637;DHT22;11995;50.842;4.456;2023-05-14T11:13:06;17.30;99.90
23637;DHT22;11995;50.842;4.456;2023-05-14T11:15:36;17.20;99.90
23637;DHT22;11995;50.842;4.456;2023-05-14T11:18:03;17.10;99.90
23637;DHT22;11995;50.842;4.456;2023-05-14T11:20:31;17.10;99.90
23637;DHT22;11995;50.842;4.456;2023-05-14T11:22:59;17.40;99.90
23637;DHT22;11995;50.842;4.456;2023-05-14T11:25:26;17.20;99.90
23637;DHT22;11995;50.842;4.456;2023-05-14T11:27:55;17.10;99.90
23637;DHT22;11995;50.842;4.456;2023-05-14T11:30:24;17.20;99.90
23637;DHT22;11995;50.842;4.456;2023-05-14T11:32:51;17.20;99.90
23637;DHT22;11995;50.842;4.456;2023-05-14T11:35:19;17.40;99.90
23637;DHT22;11995;50.842;4.456;2023-05-14T11:37:51;17.50;99.90
23637;DHT22;11995;50.842;4.456;2023-05-14T11:40:18;17.30;99.90
23637;DHT22;11995;50.842;4.456;2023-05-14T11:42:48;17.50;99.90
23637;DHT22;11995;50.842;4.456;2023-05-14T11:45:23;17.70;99.90
23637;DHT22;11995;50.842;4.456;2023-05-14T11:47:52;17.80;99.90
23637;DHT22;11995;50.842;4.456;2023-05-14T11:50:21;17.70;99.90
23637;DHT22;11995;50.842;4.456;2023-05-14T11:52:48;17.90;99.90
23637;DHT22;11995;50.842;4.456;2023-05-14T11:55:16;18.00;99.90
23637;DHT22;11995;50.842;4.456;2023-05-14T11:57:44;18.00;99.90
23637;DHT22;11995;50.842;4.456;2023-05-14T12:00:12;18.20;99.90
23637;DHT22;11995;50.842;4.456;2023-05-14T12:02:42;18.30;99.90
23637;DHT22;11995;50.842;4.456;2023-05-14T12:05:11;18.10;99.90
23637;DHT22;11995;50.842;4.456;2023-05-14T12:07:39;18.00;99.90
23637;DHT22;11995;50.842;4.456;2023-05-14T12:10:07;18.00;99.90
23637;DHT22;11995;50.842;4.456;2023-05-14T12:12:36;18.20;99.90
23637;DHT22;11995;50.842;4.456;2023-05-14T12:15:10;18.40;99.90
23637;DHT22;11995;50.842;4.456;2023-05-14T12:17:38;18.20;99.90
23637;DHT22;11995;50.842;4.456;2023-05-14T12:20:08;18.10;99.90
23637;DHT22;11995;50.842;4.456;2023-05-14T12:22:40;18.20;99.90
23637;DHT22;11995;50.842;4.456;2023-05-14T12:25:10;18.10;99.90
23637;DHT22;11995;50.842;4.456;2023-05-14T12:27:43;18.30;99.90
23637;DHT22;11995;50.842;4.456;2023-05-14T12:30:11;18.30;99.90
23637;DHT22;11995;50.842;4.456;2023-05-14T12:32:40;18.40;99.90
23637;DHT22;11995;50.842;4.456;2023-05-14T12:35:08;18.60;99.90
23637;DHT22;11995;50.842;4.456;2023-05-14T12:37:36;18.50;99.90
23637;DHT22;11995;50.842;4.456;2023-05-14T12:40:05;18.60;99.90
23637;DHT22;11995;50.842;4.456;2023-05-14T12:42:37;18.80;99.90
23637;DHT22;11995;50.842;4.456;2023-05-14T12:45:05;18.60;99.90
23637;DHT22;11995;50.842;4.456;2023-05-14T12:47:34;18.80;99.90
23637;DHT22;11995;50.842;4.456;2023-05-14T12:50:02;19.00;99.90
23637;DHT22;11995;50.842;4.456;2023-05-14T12:52:29;18.90;99.90
23637;DHT22;11995;50.842;4.456;2023-05-14T12:54:57;18.70;99.90
23637;DHT22;11995;50.842;4.456;2023-05-14T12:57:24;18.80;99.90
23637;DHT22;11995;50.842;4.456;2023-05-14T12:59:53;18.90;99.90
23637;DHT22;11995;50.842;4.456;2023-05-14T13:02:21;19.00;99.90
23637;DHT22;11995;50.842;4.456;2023-05-14T13:04:48;19.00;99.90
23637;DHT22;11995;50.842;4.456;2023-05-14T13:07:16;19.20;99.90
23637;DHT22;11995;50.842;4.456;2023-05-14T13:09:44;19.30;99.90
23637;DHT22;11995;50.842;4.456;2023-05-14T13:12:11;19.20;99.90
23637;DHT22;11995;50.842;4.456;2023-05-14T13:14:39;19.30;99.90
23637;DHT22;11995;50.842;4.456;2023-05-14T13:17:06;19.40;99.90
23637;DHT22;11995;50.842;4.456;2023-05-14T13:19:34;19.50;99.90
23637;DHT22;11995;50.842;4.456;2023-05-14T13:22:01;19.60;99.90
23637;DHT22;11995;50.842;4.456;2023-05-14T13:24:29;19.60;99.90
23637;DHT22;11995;50.842;4.456;2023-05-14T13:26:56;19.60;99.90
23637;DHT22;11995;50.842;4.456;2023-05-14T13:29:24;19.60;99.90
23637;DHT22;11995;50.842;4.456;2023-05-14T13:31:53;19.60;99.90
23637;DHT22;11995;50.842;4.456;2023-05-14T13:34:20;19.70;99.90
23637;DHT22;11995;50.842;4.456;2023-05-14T13:36:48;19.90;99.90
23637;DHT22;11995;50.842;4.456;2023-05-14T13:39:16;20.10;99.90
23637;DHT22;11995;50.842;4.456;2023-05-14T13:41:45;20.10;99.90
23637;DHT22;11995;50.842;4.456;2023-05-14T13:44:12;20.10;99.90
23637;DHT22;11995;50.842;4.456;2023-05-14T13:46:40;20.10;99.90
23637;DHT22;11995;50.842;4.456;2023-05-14T13:49:09;19.90;99.90
23637;DHT22;11995;50.842;4.456;2023-05-14T13:51:37;20.00;99.90
23637;DHT22;11995;50.842;4.456;2023-05-14T13:54:04;20.10;99.90
23637;DHT22;11995;50.842;4.456;2023-05-14T13:56:32;20.30;99.90
23637;DHT22;11995;50.842;4.456;2023-05-14T13:59:00;20.40;99.90
23637;DHT22;11995;50.842;4.456;2023-05-14T14:01:28;20.30;99.90
23637;DHT22;11995;50.842;4.456;2023-05-14T14:03:57;20.40;99.90
23637;DHT22;11995;50.842;4.456;2023-05-14T14:06:25;20.40;99.90
23637;DHT22;11995;50.842;4.456;2023-05-14T14:08:53;20.30;99.90
23637;DHT22;11995;50.842;4.456;2023-05-14T14:11:20;20.50;99.90
23637;DHT22;11995;50.842;4.456;2023-05-14T14:13:48;20.70;99.90
23637;DHT22;11995;50.842;4.456;2023-05-14T14:16:15;20.90;99.90
23637;DHT22;11995;50.842;4.456;2023-05-14T14:18:44;21.00;99.90
23637;DHT22;11995;50.842;4.456;2023-05-14T14:21:12;20.60;99.90
23637;DHT22;11995;50.842;4.456;2023-05-14T14:23:41;20.60;99.90
23637;DHT22;11995;50.842;4.456;2023-05-14T14:26:09;20.50;99.90
23637;DHT22;11995;50.842;4.456;2023-05-14T14:28:36;20.70;99.90
23637;DHT22;11995;50.842;4.456;2023-05-14T14:31:05;20.90;99.90
23637;DHT22;11995;50.842;4.456;2023-05-14T14:33:33;20.80;99.90
23637;DHT22;11995;50.842;4.456;2023-05-14T14:36:00;20.80;99.90
23637;DHT22;11995;50.842;4.456;2023-05-14T14:38:28;20.90;99.90
23637;DHT22;11995;50.842;4.456;2023-05-14T14:40:56;20.90;99.90
23637;DHT22;11995;50.842;4.456;2023-05-14T14:43:24;20.60;99.90
23637;DHT22;11995;50.842;4.456;2023-05-14T14:45:52;20.70;99.90
23637;DHT22;11995;50.842;4.456;2023-05-14T14:48:34;20.80;99.90
23637;DHT22;11995;50.842;4.456;2023-05-14T14:51:06;20.90;99.90
23637;DHT22;11995;50.842;4.456;2023-05-14T14:53:35;21.00;99.90
23637;DHT22;11995;50.842;4.456;2023-05-14T14:56:03;20.90;99.90
23637;DHT22;11995;50.842;4.456;2023-05-14T14:58:30;20.90;99.90
23637;DHT22;11995;50.842;4.456;2023-05-14T15:00:59;20.80;99.90
23637;DHT22;11995;50.842;4.456;2023-05-14T15:03:26;20.70;99.90
23637;DHT22;11995;50.842;4.456;2023-05-14T15:05:54;20.60;99.90
23637;DHT22;11995;50.842;4.456;2023-05-14T15:08:26;20.60;99.90
23637;DHT22;11995;50.842;4.456;2023-05-14T15:10:55;20.40;99.90
23637;DHT22;11995;50.842;4.456;2023-05-14T15:13:22;20.50;99.90
23637;DHT22;11995;50.842;4.456;2023-05-14T15:15:50;20.50;99.90
23637;DHT22;11995;50.842;4.456;2023-05-14T15:18:18;20.60;99.90
23637;DHT22;11995;50.842;4.456;2023-05-14T15:20:45;20.50;99.90
23637;DHT22;11995;50.842;4.456;2023-05-14T15:23:13;20.50;99.90
23637;DHT22;11995;50.842;4.456;2023-05-14T15:25:41;20.60;99.90
23637;DHT22;11995;50.842;4.456;2023-05-14T15:28:08;20.60;99.90
23637;DHT22;11995;50.842;4.456;2023-05-14T15:30:36;20.60;99.90
23637;DHT22;11995;50.842;4.456;2023-05-14T15:33:10;20.70;99.90
23637;DHT22;11995;50.842;4.456;2023-05-14T15:35:34;20.60;99.90
23637;DHT22;11995;50.842;4.456;2023-05-14T15:38:03;20.70;99.90